Time;durP1;ratioP1;P1;durP2;ratioP2;P2;SDS_P1;SDS_P2;PMS_P1;PMS_P2;Temp;Humidity;BMP_temperature;BMP_pressure;BME280_temperature;BME280_humidity;BME280_pressure;Samples;Min_cycle;Max_cycle;Signal;HPM_P1;HPM_P2
2021/01/23 00:00:28;;;;;;;14.80;9.30;;;5.20;99.90;;;;;;4959011;29;20186;-71
2021/01/23 00:02:54;;;;;;;12.57;10.20;;;5.30;99.90;;;;;;4958831;29;20624;-71
2021/01/23 00:05:19;;;;;;;20.30;10.40;;;5.30;99.90;;;;;;4958903;29;20214;-72
2021/01/23 00:07:45;;;;;;;19.73;9.17;;;5.30;99.90;;;;;;4958846;29;20189;-72
2021/01/23 00:10:11;;;;;;;20.10;10.23;;;5.30;99.90;;;;;;4958771;29;20182;-72
2021/01/23 00:12:36;;;;;;;18.47;10.80;;;5.30;99.90;;;;;;4958501;28;20185;-71
2021/01/23 00:18:25;;;;;;;12.37;9.10;;;5.30;99.90;;;;;;4958480;29;20588;-71
2021/01/23 00:20:51;;;;;;;13.50;10.20;;;5.20;99.90;;;;;;4958600;28;20517;-72
2021/01/23 00:23:16;;;;;;;11.70;10.07;;;5.20;99.90;;;;;;4959163;28;20576;-74
2021/01/23 00:25:42;;;;;;;12.77;9.93;;;5.20;99.90;;;;;;4958850;29;20275;-74
2021/01/23 00:28:08;;;;;;;13.80;9.97;;;5.10;99.90;;;;;;4958530;29;20276;-72
2021/01/23 00:30:33;;;;;;;12.07;9.80;;;5.00;99.90;;;;;;4958519;29;20232;-71
2021/01/23 00:32:59;;;;;;;18.20;11.63;;;5.00;99.90;;;;;;4958170;29;20190;-71
2021/01/23 00:35:24;;;;;;;13.90;9.93;;;5.00;99.90;;;;;;4956843;29;20185;-72
2021/01/23 00:37:50;;;;;;;14.13;11.50;;;5.00;99.90;;;;;;4958379;29;20181;-72
2021/01/23 00:40:16;;;;;;;17.50;10.97;;;4.90;99.90;;;;;;4958315;28;20540;-73
2021/01/23 00:42:42;;;;;;;15.73;11.43;;;4.80;99.90;;;;;;4958091;28;20216;-73
2021/01/23 00:45:09;;;;;;;13.40;9.10;;;4.80;99.90;;;;;;4958229;29;20436;-73
2021/01/23 00:47:34;;;;;;;17.30;10.52;;;4.80;99.90;;;;;;4957725;29;20773;-73
2021/01/23 00:50:00;;;;;;;13.97;9.87;;;4.80;99.90;;;;;;4958093;29;20258;-73
2021/01/23 00:52:26;;;;;;;14.97;9.80;;;4.80;99.90;;;;;;4958131;29;20178;-73
2021/01/23 00:54:51;;;;;;;14.73;10.87;;;4.90;99.90;;;;;;4958024;29;20176;-72
2021/01/23 00:57:17;;;;;;;14.93;10.80;;;4.80;99.90;;;;;;4957655;29;20193;-73
2021/01/23 00:59:42;;;;;;;12.40;9.27;;;4.80;99.90;;;;;;4957968;29;20182;-72
2021/01/23 01:02:08;;;;;;;13.40;9.60;;;4.80;99.90;;;;;;4957847;29;20221;-73
2021/01/23 01:04:34;;;;;;;19.10;9.37;;;4.80;99.90;;;;;;4957922;29;20536;-73
2021/01/23 01:06:59;;;;;;;13.70;10.10;;;4.70;99.90;;;;;;4957827;29;20591;-72
2021/01/23 01:09:25;;;;;;;13.17;10.20;;;4.70;99.90;;;;;;4957784;29;20172;-72
2021/01/23 01:11:50;;;;;;;17.57;11.57;;;4.70;99.90;;;;;;4957731;29;20633;-73
2021/01/23 01:17:38;;;;;;;14.33;10.93;;;4.70;99.90;;;;;;4957645;29;20229;-72
2021/01/23 01:20:04;;;;;;;15.30;12.13;;;4.80;99.90;;;;;;4957368;29;20429;-70
2021/01/23 01:22:29;;;;;;;16.40;11.93;;;4.80;99.90;;;;;;4957438;28;20214;-72
2021/01/23 01:24:56;;;;;;;13.03;9.30;;;4.80;99.90;;;;;;4957556;29;20908;-73
2021/01/23 01:27:21;;;;;;;14.20;10.00;;;4.70;99.90;;;;;;4957510;29;20544;-72
2021/01/23 01:33:09;;;;;;;13.50;9.53;;;4.80;99.90;;;;;;4957246;29;20214;-72
2021/01/23 01:38:56;;;;;;;12.13;9.23;;;4.90;99.90;;;;;;4957062;29;20283;-70
2021/01/23 01:41:22;;;;;;;18.13;11.70;;;4.80;99.90;;;;;;4956905;29;20460;-72
2021/01/23 01:43:47;;;;;;;15.80;10.03;;;4.80;99.90;;;;;;4957193;29;20189;-71
2021/01/23 01:46:13;;;;;;;14.77;10.13;;;4.80;99.90;;;;;;4957132;29;20178;-69
2021/01/23 01:48:39;;;;;;;14.17;10.57;;;4.80;99.90;;;;;;4957159;28;20204;-69
2021/01/23 01:51:05;;;;;;;13.50;10.70;;;4.90;99.90;;;;;;4956740;29;20433;-68
2021/01/23 01:53:30;;;;;;;16.57;10.80;;;4.90;99.90;;;;;;4956526;28;20189;-72
2021/01/23 01:55:56;;;;;;;13.83;10.07;;;4.90;99.90;;;;;;4956643;29;20645;-72
2021/01/23 01:58:22;;;;;;;12.80;9.40;;;4.90;99.90;;;;;;4956959;28;20185;-72
2021/01/23 02:00:47;;;;;;;13.90;10.03;;;4.90;99.90;;;;;;4956514;29;20194;-72
2021/01/23 02:03:25;;;;;;;14.73;10.40;;;4.90;99.90;;;;;;4956878;29;20192;-71
2021/01/23 02:06:15;;;;;;;13.00;8.97;;;4.90;99.90;;;;;;4956558;29;20174;-70
2021/01/23 02:08:54;;;;;;;14.40;9.40;;;4.90;99.90;;;;;;4956851;29;20418;-70
2021/01/23 02:11:57;;;;;;;12.50;9.30;;;4.90;99.90;;;;;;4956758;29;20432;-70
2021/01/23 02:14:44;;;;;;;15.50;10.73;;;4.90;99.90;;;;;;4956710;29;20432;-71
2021/01/23 02:17:13;;;;;;;14.53;9.80;;;5.00;99.90;;;;;;4957600;29;20479;-71
2021/01/23 02:19:54;;;;;;;12.03;9.33;;;5.00;99.90;;;;;;4957156;29;20891;-70
2021/01/23 02:22:37;;;;;;;11.30;9.17;;;5.00;99.90;;;;;;4957221;29;20537;-70
2021/01/23 06:30:44;;;;;;;11.47;7.23;;;5.20;99.90;;;;;;5834663;23;20497;-72
2021/01/23 06:33:22;;;;;;;5.93;5.30;;;5.20;99.90;;;;;;4994506;28;20436;-72
2021/01/23 06:36:10;;;;;;;14.30;5.80;;;5.30;99.90;;;;;;4994538;28;20246;-72
2021/01/23 06:38:36;;;;;;;9.53;6.60;;;5.30;99.90;;;;;;4994576;28;20463;-72
2021/01/23 06:41:27;;;;;;;10.80;6.20;;;5.30;99.90;;;;;;4994149;28;20763;-72
2021/01/23 06:44:19;;;;;;;7.80;5.77;;;5.30;99.90;;;;;;4994530;28;21012;-72
2021/01/23 06:46:50;;;;;;;8.70;6.07;;;5.40;99.90;;;;;;4994380;28;20416;-72
2021/01/23 06:49:16;;;;;;;6.43;5.40;;;5.40;99.90;;;;;;4994258;28;20501;-72
2021/01/23 06:51:42;;;;;;;8.00;5.40;;;5.40;99.90;;;;;;4994372;28;20817;-72
2021/01/23 06:54:14;;;;;;;6.50;5.90;;;5.50;99.90;;;;;;4994239;28;20175;-72
2021/01/23 06:56:47;;;;;;;6.73;5.10;;;5.50;99.90;;;;;;4994285;28;20837;-72
2021/01/23 06:59:40;;;;;;;5.20;4.63;;;5.60;99.90;;;;;;4994113;28;20571;-72
2021/01/23 07:02:10;;;;;;;6.60;5.40;;;5.60;99.90;;;;;;4993653;28;20478;-72
2021/01/23 07:04:44;;;;;;;5.53;4.23;;;5.60;99.90;;;;;;4994127;28;20450;-73
2021/01/23 07:07:10;;;;;;;6.77;5.30;;;5.70;99.90;;;;;;4994006;28;20412;-72
2021/01/23 07:09:49;;;;;;;10.03;5.60;;;5.70;99.90;;;;;;4994155;28;20432;-72
2021/01/23 07:12:34;;;;;;;6.63;4.93;;;5.70;99.90;;;;;;4993856;28;20413;-72
2021/01/23 07:15:01;;;;;;;8.20;5.57;;;5.60;99.90;;;;;;4993939;28;20430;-72
2021/01/23 07:29:23;;;;;;;10.23;6.23;;;5.40;99.90;;;;;;5089464;27;20545;-77
2021/01/23 07:31:54;;;;;;;5.07;4.57;;;5.30;99.90;;;;;;5079010;28;20443;-71
2021/01/23 07:34:20;;;;;;;7.07;5.43;;;5.30;99.90;;;;;;5068225;28;20180;-72
2021/01/23 07:36:46;;;;;;;8.27;5.30;;;5.40;99.90;;;;;;5069496;28;20435;-71
2021/01/23 07:39:17;;;;;;;8.97;5.50;;;5.40;99.90;;;;;;5069522;28;20181;-73
2021/01/23 07:41:53;;;;;;;12.63;6.50;;;5.50;99.90;;;;;;5069533;28;20188;-71
2021/01/23 07:44:20;;;;;;;7.53;6.77;;;5.50;99.90;;;;;;5069395;28;20429;-71
2021/01/23 07:46:47;;;;;;;9.70;6.67;;;5.50;99.90;;;;;;5069255;28;20512;-71
2021/01/23 07:49:27;;;;;;;7.47;6.27;;;5.60;99.90;;;;;;5069261;28;20494;-72
2021/01/23 07:52:06;;;;;;;8.40;5.77;;;5.60;99.90;;;;;;5069327;28;20437;-72
2021/01/23 07:54:32;;;;;;;6.57;5.07;;;5.60;99.90;;;;;;5069339;28;20423;-72
2021/01/23 07:56:57;;;;;;;10.33;7.37;;;5.60;99.90;;;;;;5069282;28;20479;-72
2021/01/23 07:59:45;;;;;;;7.13;5.90;;;5.60;99.90;;;;;;5069044;28;20432;-72
2021/01/23 08:02:12;;;;;;;7.50;5.53;;;5.60;99.90;;;;;;5069156;28;20178;-74
2021/01/23 08:04:39;;;;;;;11.53;6.50;;;5.50;99.90;;;;;;5069053;28;20474;-75
2021/01/23 08:07:30;;;;;;;9.83;5.87;;;5.50;99.90;;;;;;5068641;28;20432;-73
2021/01/23 08:10:23;;;;;;;6.43;5.60;;;5.50;99.90;;;;;;5068953;28;20441;-69
2021/01/23 08:12:55;;;;;;;9.70;5.53;;;5.70;99.90;;;;;;5071532;28;20907;-68
2021/01/23 08:15:26;;;;;;;9.73;6.53;;;5.70;99.90;;;;;;5068678;28;20435;-68
2021/01/23 08:17:52;;;;;;;7.53;5.77;;;5.60;99.90;;;;;;5068757;28;20436;-70
2021/01/23 08:20:35;;;;;;;7.13;5.47;;;5.60;99.90;;;;;;5068697;28;20463;-72
2021/01/23 08:23:10;;;;;;;7.20;6.10;;;5.70;99.90;;;;;;5068591;28;20932;-70
2021/01/23 08:25:49;;;;;;;9.13;6.20;;;5.60;99.90;;;;;;5067099;28;20917;-70
2021/01/23 08:28:16;;;;;;;10.37;6.10;;;5.60;99.90;;;;;;5077259;28;20489;-72
2021/01/23 08:30:43;;;;;;;8.20;6.47;;;5.70;99.90;;;;;;5088268;28;20443;-76
2021/01/23 08:33:10;;;;;;;11.60;6.53;;;5.80;99.90;;;;;;5085891;28;20424;-74
2021/01/23 08:35:38;;;;;;;6.90;6.20;;;5.80;99.90;;;;;;5071971;28;20535;-74
2021/01/23 08:38:04;;;;;;;8.27;5.63;;;5.80;99.90;;;;;;5067039;28;20925;-75
2021/01/23 08:40:30;;;;;;;7.20;5.13;;;5.80;99.90;;;;;;5056486;28;20858;-75
2021/01/23 08:42:55;;;;;;;9.13;5.90;;;5.80;99.90;;;;;;5054964;28;20445;-74
2021/01/23 08:45:23;;;;;;;11.67;6.33;;;5.90;99.90;;;;;;5054966;28;20642;-78
2021/01/23 08:47:49;;;;;;;10.53;6.67;;;5.90;99.90;;;;;;5054655;28;20215;-75
2021/01/23 08:50:15;;;;;;;9.60;6.00;;;6.00;99.90;;;;;;5054748;28;20467;-75
2021/01/23 08:52:41;;;;;;;10.37;5.43;;;6.10;99.90;;;;;;5065445;28;20838;-75
2021/01/23 08:55:07;;;;;;;7.57;5.73;;;6.20;99.90;;;;;;5063112;28;20425;-76
2021/01/23 08:57:33;;;;;;;7.33;5.80;;;6.20;99.90;;;;;;5064358;28;20203;-76
2021/01/23 08:59:59;;;;;;;7.83;5.07;;;6.40;99.90;;;;;;5064906;28;20920;-79
2021/01/23 09:02:24;;;;;;;10.77;7.30;;;6.30;99.90;;;;;;5063073;28;20440;-76
2021/01/23 09:04:50;;;;;;;6.43;5.13;;;6.30;99.90;;;;;;5058911;28;20195;-76
2021/01/23 09:07:16;;;;;;;7.73;6.03;;;6.30;99.90;;;;;;5058911;28;20179;-80
2021/01/23 09:09:41;;;;;;;7.53;5.13;;;6.40;99.90;;;;;;5063063;28;20191;-77
2021/01/23 09:12:08;;;;;;;7.70;4.97;;;6.50;99.90;;;;;;5065125;28;20170;-72
2021/01/23 09:14:34;;;;;;;6.90;4.97;;;6.50;99.90;;;;;;5062626;28;20265;-68
2021/01/23 09:16:59;;;;;;;7.27;5.00;;;6.50;99.90;;;;;;5061572;28;20833;-69
2021/01/23 09:19:25;;;;;;;7.67;5.60;;;6.50;99.90;;;;;;5061077;28;20187;-69
2021/01/23 09:21:50;;;;;;;6.10;5.13;;;6.50;99.90;;;;;;5057844;28;20265;-68
2021/01/23 09:24:17;;;;;;;9.07;5.07;;;6.60;99.90;;;;;;5057749;28;20198;-69
2021/01/23 09:26:43;;;;;;;12.73;4.80;;;6.70;99.90;;;;;;5058171;28;20182;-69
2021/01/23 09:29:09;;;;;;;6.60;5.23;;;6.70;99.90;;;;;;5058934;28;20487;-70
2021/01/23 09:31:34;;;;;;;10.40;4.60;;;6.70;99.90;;;;;;5059342;28;20185;-70
2021/01/23 09:34:00;;;;;;;7.70;5.00;;;6.70;99.90;;;;;;5043156;28;20543;-69
2021/01/23 09:36:26;;;;;;;5.10;4.60;;;6.80;99.90;;;;;;5034238;28;20191;-70
2021/01/23 09:38:52;;;;;;;6.70;5.33;;;6.80;99.90;;;;;;5034199;28;20206;-69
2021/01/23 09:41:18;;;;;;;6.03;4.40;;;7.00;99.90;;;;;;5056514;28;20441;-70
2021/01/23 09:43:43;;;;;;;8.13;5.43;;;7.00;99.90;;;;;;5057692;28;20238;-70
2021/01/23 09:46:10;;;;;;;8.13;5.37;;;7.10;99.90;;;;;;5058555;28;20708;-70
2021/01/23 09:48:35;;;;;;;7.23;5.10;;;7.10;99.90;;;;;;5054042;28;20718;-69
2021/01/23 09:51:01;;;;;;;7.07;4.93;;;7.10;99.90;;;;;;5059627;28;20505;-69
2021/01/23 09:53:26;;;;;;;4.60;4.20;;;7.10;99.90;;;;;;5060760;28;20311;-69
2021/01/23 09:55:52;;;;;;;5.97;4.20;;;7.00;99.90;;;;;;5056261;28;20178;-70
2021/01/23 09:58:18;;;;;;;6.20;4.37;;;7.10;99.90;;;;;;5058575;28;20249;-69
2021/01/23 10:00:43;;;;;;;5.70;4.70;;;7.20;99.90;;;;;;5057883;28;20622;-68
2021/01/23 10:03:09;;;;;;;6.67;4.80;;;7.20;99.90;;;;;;5035909;28;20179;-70
2021/01/23 10:05:35;;;;;;;6.30;4.63;;;7.30;99.90;;;;;;5039508;28;20541;-66
2021/01/23 10:08:00;;;;;;;7.05;4.60;;;7.40;99.90;;;;;;5033075;28;20928;-67
2021/01/23 10:10:28;;;;;;;6.30;4.70;;;7.30;99.90;;;;;;5034338;28;20535;-68
2021/01/23 10:12:53;;;;;;;8.30;4.63;;;7.30;99.90;;;;;;5034278;28;20192;-69
2021/01/23 10:15:20;;;;;;;6.03;4.23;;;7.20;99.90;;;;;;5045181;28;20513;-69
2021/01/23 10:17:45;;;;;;;8.10;4.83;;;7.40;99.90;;;;;;5053471;28;20585;-68
2021/01/23 10:20:11;;;;;;;8.53;4.40;;;7.30;99.90;;;;;;5053566;28;20498;-70
2021/01/23 10:22:36;;;;;;;6.70;4.70;;;7.30;99.90;;;;;;5053251;28;20175;-70
2021/01/23 10:25:03;;;;;;;4.80;4.30;;;7.40;99.90;;;;;;5052991;28;20224;-68
2021/01/23 10:27:29;;;;;;;7.20;4.60;;;7.50;99.90;;;;;;5052997;28;20246;-69
2021/01/23 10:29:54;;;;;;;5.67;4.03;;;7.50;99.90;;;;;;5054645;28;20440;-70
2021/01/23 10:32:20;;;;;;;4.57;3.77;;;7.70;99.90;;;;;;5044345;28;20175;-69
2021/01/23 10:34:46;;;;;;;10.50;4.47;;;7.70;99.90;;;;;;5034114;28;20618;-69
2021/01/23 10:37:12;;;;;;;6.43;3.77;;;7.70;99.90;;;;;;5033927;28;20179;-69
2021/01/23 10:39:38;;;;;;;8.27;4.60;;;7.70;99.90;;;;;;5052930;28;20548;-69
2021/01/23 10:42:04;;;;;;;6.80;4.03;;;7.70;99.90;;;;;;5058189;28;20433;-68
2021/01/23 10:44:29;;;;;;;7.60;5.00;;;7.70;99.90;;;;;;5053832;28;20259;-69
2021/01/23 10:46:55;;;;;;;6.17;5.00;;;7.70;99.90;;;;;;5052997;28;20262;-69
2021/01/23 10:49:21;;;;;;;6.40;5.00;;;7.70;99.90;;;;;;5033704;28;20241;-72
2021/01/23 10:51:48;;;;;;;9.03;4.40;;;7.60;99.90;;;;;;5050375;28;20175;-67
2021/01/23 10:54:13;;;;;;;5.33;4.67;;;7.60;99.90;;;;;;5057714;28;20222;-68
2021/01/23 10:56:39;;;;;;;6.47;5.00;;;7.70;99.90;;;;;;5057601;28;20461;-67
2021/01/23 10:59:05;;;;;;;6.57;4.67;;;7.70;99.90;;;;;;5059236;28;20442;-67
2021/01/23 11:01:30;;;;;;;11.03;5.47;;;7.80;99.90;;;;;;5054965;28;20178;-67
2021/01/23 11:03:57;;;;;;;4.67;4.10;;;7.80;99.90;;;;;;5056026;28;20171;-67
2021/01/23 11:06:23;;;;;;;4.87;4.37;;;7.90;99.90;;;;;;5060106;28;20426;-67
2021/01/23 11:08:49;;;;;;;4.70;4.30;;;7.90;99.90;;;;;;5057690;28;20469;-68
2021/01/23 11:11:15;;;;;;;7.10;4.63;;;8.00;99.90;;;;;;5057703;28;20437;-66
2021/01/23 11:13:41;;;;;;;6.47;4.57;;;8.00;99.90;;;;;;5057126;28;20186;-67
2021/01/23 11:16:07;;;;;;;8.13;4.90;;;8.00;99.90;;;;;;5056540;28;20931;-68
2021/01/23 11:18:33;;;;;;;6.90;4.23;;;8.00;99.90;;;;;;5060752;28;20187;-68
2021/01/23 11:20:58;;;;;;;5.30;4.60;;;8.00;99.90;;;;;;5060060;28;20425;-66
2021/01/23 11:23:24;;;;;;;6.40;4.53;;;8.00;99.90;;;;;;5057649;28;20186;-66
2021/01/23 11:25:49;;;;;;;5.50;3.80;;;8.00;99.90;;;;;;5057840;28;20174;-68
2021/01/23 11:28:15;;;;;;;5.27;3.83;;;8.00;99.90;;;;;;5052155;28;20745;-67
2021/01/23 11:30:40;;;;;;;4.90;4.20;;;8.00;99.90;;;;;;5033201;28;20194;-68
2021/01/23 11:33:06;;;;;;;6.57;4.13;;;8.10;99.90;;;;;;5033260;28;20619;-68
2021/01/23 11:35:31;;;;;;;4.60;3.63;;;8.10;99.90;;;;;;5033308;28;20274;-67
2021/01/23 11:38:00;;;;;;;6.70;4.50;;;8.20;99.90;;;;;;5033184;28;20207;-67
2021/01/23 11:40:26;;;;;;;9.47;4.00;;;8.20;99.90;;;;;;5033369;28;20192;-68
2021/01/23 11:42:52;;;;;;;5.97;3.63;;;8.20;99.90;;;;;;5033127;28;20438;-66
2021/01/23 11:45:18;;;;;;;6.93;3.77;;;8.20;99.90;;;;;;5043676;28;20472;-65
2021/01/23 11:47:43;;;;;;;5.17;3.77;;;8.20;99.90;;;;;;5052171;28;20223;-66
2021/01/23 11:50:10;;;;;;;5.60;4.80;;;8.30;99.90;;;;;;5052019;28;20182;-67
2021/01/23 11:52:36;;;;;;;6.00;3.83;;;8.30;99.90;;;;;;5051848;28;20365;-67
2021/01/23 11:55:02;;;;;;;5.53;3.50;;;8.50;99.90;;;;;;5051842;28;20434;-67
2021/01/23 11:57:28;;;;;;;4.63;3.43;;;8.70;99.90;;;;;;5052122;28;20444;-68
2021/01/23 11:59:54;;;;;;;9.70;3.53;;;8.80;99.90;;;;;;5052052;28;20784;-68
2021/01/23 12:02:20;;;;;;;10.40;4.67;;;8.90;99.90;;;;;;5051998;28;20179;-69
2021/01/23 16:32:09;;;;;;;13.90;6.00;;;7.20;99.90;;;;;;5086712;27;20467;-70
2021/01/23 16:34:35;;;;;;;8.80;6.70;;;7.30;99.90;;;;;;5062241;28;20602;-69
2021/01/23 16:37:00;;;;;;;6.87;6.07;;;7.40;99.90;;;;;;5050439;28;20461;-70
2021/01/23 16:39:26;;;;;;;7.10;5.30;;;7.40;99.90;;;;;;5056833;28;20175;-70
2021/01/23 16:41:53;;;;;;;9.70;5.50;;;7.40;99.90;;;;;;5050489;28;20183;-69
2021/01/23 16:44:22;;;;;;;8.07;5.53;;;7.50;99.90;;;;;;5053973;28;20181;-70
2021/01/23 16:46:49;;;;;;;10.00;5.37;;;7.50;99.90;;;;;;5069404;28;20437;-70
2021/01/23 16:49:15;;;;;;;9.13;6.20;;;7.50;99.90;;;;;;5069332;28;20432;-69
2021/01/23 16:51:40;;;;;;;10.27;5.40;;;7.60;99.90;;;;;;5069543;28;20468;-70
2021/01/23 16:54:06;;;;;;;8.77;5.60;;;7.60;99.90;;;;;;5069483;28;20521;-69
2021/01/23 16:56:31;;;;;;;9.30;6.80;;;7.60;99.90;;;;;;5069379;28;20220;-70
2021/01/23 16:58:57;;;;;;;10.77;6.00;;;7.60;99.90;;;;;;5068717;28;20187;-70
2021/01/23 17:01:22;;;;;;;8.37;6.40;;;7.60;99.90;;;;;;5069769;28;20170;-70
2021/01/23 17:03:48;;;;;;;8.83;6.47;;;7.60;99.90;;;;;;5070364;28;20182;-69
2021/01/23 17:06:14;;;;;;;9.73;5.33;;;7.60;99.90;;;;;;5050641;28;20221;-70
2021/01/23 17:08:39;;;;;;;7.37;6.40;;;7.60;99.90;;;;;;5054200;28;20187;-69
2021/01/23 17:11:05;;;;;;;7.00;6.00;;;7.70;99.90;;;;;;5049877;28;20735;-69
2021/01/23 17:13:30;;;;;;;14.83;6.73;;;7.70;99.90;;;;;;5049822;28;20627;-68
2021/01/23 17:15:56;;;;;;;13.60;6.40;;;7.70;99.90;;;;;;5065462;28;20183;-69
2021/01/23 17:18:25;;;;;;;5.70;4.13;;;7.80;99.90;;;;;;5068811;28;20186;-68
2021/01/23 17:20:50;;;;;;;10.30;7.00;;;7.80;99.90;;;;;;5068814;28;20240;-68
2021/01/23 17:23:16;;;;;;;9.33;7.63;;;7.90;99.90;;;;;;5068924;28;20429;-70
2021/01/23 17:25:43;;;;;;;12.63;7.17;;;7.90;99.90;;;;;;5069056;28;20182;-69
2021/01/23 17:28:08;;;;;;;9.23;8.00;;;7.80;99.90;;;;;;5068662;28;20431;-68
2021/01/23 17:30:37;;;;;;;11.73;8.53;;;7.80;99.90;;;;;;5068018;28;20978;-68
2021/01/23 17:33:02;;;;;;;9.43;7.87;;;7.80;99.90;;;;;;5068637;28;20190;-71
2021/01/23 17:35:28;;;;;;;12.87;7.17;;;7.80;99.90;;;;;;5062600;28;20921;-70
2021/01/23 17:37:54;;;;;;;8.03;6.47;;;7.80;99.90;;;;;;5065812;28;20189;-70
2021/01/23 17:40:20;;;;;;;7.60;6.20;;;7.80;99.90;;;;;;5066291;28;20428;-69
2021/01/23 17:42:45;;;;;;;9.33;6.80;;;7.70;99.90;;;;;;5054030;28;20649;-69
2021/01/23 17:45:11;;;;;;;7.30;6.57;;;7.80;99.90;;;;;;5050146;28;20183;-69
2021/01/23 17:47:37;;;;;;;12.40;6.20;;;7.80;99.90;;;;;;5048075;28;20172;-72
2021/01/23 17:50:04;;;;;;;9.80;6.80;;;7.70;99.90;;;;;;5051122;28;20515;-70
2021/01/23 17:52:29;;;;;;;9.30;6.27;;;7.70;99.90;;;;;;5048882;28;20190;-70
2021/01/23 17:54:55;;;;;;;12.70;6.90;;;7.60;99.90;;;;;;5038012;28;20418;-70
2021/01/23 17:57:20;;;;;;;8.63;7.10;;;7.60;99.90;;;;;;5034997;28;20179;-71
2021/01/23 17:59:46;;;;;;;13.50;8.77;;;7.60;99.90;;;;;;5034926;28;20651;-71
2021/01/23 18:02:13;;;;;;;17.17;13.03;;;7.70;99.90;;;;;;5042689;28;20183;-70
2021/01/23 18:04:39;;;;;;;10.73;7.87;;;7.60;99.90;;;;;;5034849;28;20832;-69
2021/01/23 18:07:05;;;;;;;9.33;7.57;;;7.60;99.90;;;;;;5034878;28;20437;-69
2021/01/23 18:09:31;;;;;;;10.60;7.37;;;7.60;99.90;;;;;;5034676;28;20438;-69
2021/01/23 18:11:56;;;;;;;13.80;7.27;;;7.50;99.90;;;;;;5034702;28;20484;-71
2021/01/23 18:14:24;;;;;;;14.63;6.70;;;7.50;99.90;;;;;;5038109;28;20199;-73
2021/01/23 18:16:50;;;;;;;8.30;6.80;;;7.30;99.90;;;;;;5053531;28;20183;-69
2021/01/23 18:19:15;;;;;;;8.73;6.97;;;7.30;99.90;;;;;;5053666;28;20444;-70
2021/01/23 18:21:41;;;;;;;8.57;7.10;;;7.30;99.90;;;;;;5053396;28;20179;-70
2021/01/23 18:24:06;;;;;;;12.13;7.50;;;7.20;99.90;;;;;;5053593;28;20179;-70
2021/01/23 18:26:32;;;;;;;9.00;7.07;;;7.20;99.90;;;;;;5053190;28;20202;-70
2021/01/23 18:28:57;;;;;;;10.97;8.13;;;7.20;99.90;;;;;;5053150;28;20189;-69
2021/01/23 18:31:23;;;;;;;10.30;9.23;;;7.20;99.90;;;;;;5052455;28;20235;-69
2021/01/23 18:33:48;;;;;;;11.47;9.33;;;7.20;99.90;;;;;;5053086;28;20185;-69
2021/01/23 18:36:14;;;;;;;10.80;8.13;;;7.20;99.90;;;;;;5052719;28;20226;-69
2021/01/23 18:38:39;;;;;;;11.43;7.90;;;7.20;99.90;;;;;;5052517;28;20195;-70
2021/01/23 18:41:05;;;;;;;12.53;10.70;;;7.20;99.90;;;;;;5053789;28;20186;-69
2021/01/23 18:43:30;;;;;;;11.13;8.97;;;7.10;99.90;;;;;;5053858;28;20191;-69
2021/01/23 18:45:56;;;;;;;10.10;7.63;;;7.10;99.90;;;;;;5053708;28;20708;-71
2021/01/23 18:48:23;;;;;;;7.17;6.47;;;7.10;99.90;;;;;;5052911;28;20183;-74
2021/01/23 18:50:49;;;;;;;8.87;5.90;;;7.10;99.90;;;;;;5053126;28;20222;-74
2021/01/23 18:53:14;;;;;;;9.17;7.83;;;7.30;99.90;;;;;;5052345;28;20463;-73
2021/01/23 18:55:40;;;;;;;11.90;7.80;;;7.30;99.90;;;;;;5052541;28;20301;-73
2021/01/23 18:58:06;;;;;;;9.90;7.13;;;7.20;99.90;;;;;;5051730;28;20248;-73
2021/01/23 19:00:31;;;;;;;10.87;7.73;;;7.20;99.90;;;;;;5051661;28;20633;-72
2021/01/23 19:02:57;;;;;;;9.13;6.40;;;7.00;99.90;;;;;;5052917;28;20638;-72
2021/01/23 19:05:22;;;;;;;8.40;6.30;;;7.00;99.90;;;;;;5052759;28;20179;-72
2021/01/23 19:07:48;;;;;;;7.63;6.70;;;6.90;99.90;;;;;;5052748;28;20189;-72
2021/01/23 19:10:14;;;;;;;10.10;7.30;;;6.90;99.90;;;;;;5052709;28;20285;-73
2021/01/23 19:12:40;;;;;;;11.03;7.17;;;7.00;99.90;;;;;;5052738;28;20183;-72
2021/01/23 19:15:06;;;;;;;13.03;7.67;;;7.00;99.90;;;;;;5052288;28;20436;-72
2021/01/23 19:17:32;;;;;;;8.45;6.30;;;6.90;99.90;;;;;;5051760;28;20458;-75
2021/01/23 19:19:58;;;;;;;10.10;7.33;;;7.10;99.90;;;;;;5048360;28;20175;-73
2021/01/23 19:22:23;;;;;;;7.80;5.50;;;7.10;99.90;;;;;;5051036;28;20233;-73
2021/01/23 19:24:49;;;;;;;9.33;6.70;;;7.20;99.90;;;;;;5048800;28;20199;-72
2021/01/23 19:27:14;;;;;;;9.37;6.60;;;7.10;99.90;;;;;;5049108;28;20175;-75
2021/01/23 19:29:40;;;;;;;9.37;7.17;;;7.00;99.90;;;;;;5038326;28;20176;-74
2021/01/23 19:32:05;;;;;;;10.33;6.97;;;7.10;99.90;;;;;;5032919;28;20242;-74
2021/01/23 19:34:31;;;;;;;9.17;6.53;;;7.00;99.90;;;;;;5033300;28;20190;-74
2021/01/23 19:36:56;;;;;;;7.07;6.00;;;7.00;99.90;;;;;;5033145;28;20612;-72
2021/01/23 19:39:22;;;;;;;7.83;6.50;;;6.90;99.90;;;;;;5042786;28;20206;-73
2021/01/23 19:41:48;;;;;;;10.90;7.47;;;6.90;99.90;;;;;;5035198;28;20200;-73
2021/01/23 19:44:13;;;;;;;9.13;6.23;;;6.90;99.90;;;;;;5035818;28;20235;-72
2021/01/23 19:46:39;;;;;;;6.90;6.20;;;6.90;99.90;;;;;;5052119;28;20264;-72
2021/01/23 19:49:07;;;;;;;10.63;7.47;;;6.90;99.90;;;;;;5051884;28;20530;-73
2021/01/23 19:51:41;;;;;;;8.00;7.20;;;6.80;99.90;;;;;;5052368;28;20234;-72
2021/01/23 19:54:08;;;;;;;9.73;6.80;;;6.80;99.90;;;;;;5052024;28;20447;-72
2021/01/23 19:56:34;;;;;;;8.13;6.33;;;6.80;99.90;;;;;;5051968;28;20524;-72
2021/01/23 19:59:00;;;;;;;14.27;9.90;;;6.80;99.90;;;;;;5051974;28;20586;-72
2021/01/23 20:01:26;;;;;;;8.70;7.00;;;6.80;99.90;;;;;;5051662;28;20190;-74
2021/01/23 20:03:51;;;;;;;11.07;7.00;;;6.90;99.90;;;;;;5051943;28;20560;-73
2021/01/23 20:06:17;;;;;;;8.33;7.50;;;6.80;99.90;;;;;;5051535;28;20457;-74
2021/01/23 20:08:42;;;;;;;9.00;8.10;;;6.80;99.90;;;;;;5050576;28;20179;-74
2021/01/23 20:11:08;;;;;;;8.30;6.80;;;6.80;99.90;;;;;;5051645;28;20277;-72
2021/01/23 20:13:34;;;;;;;9.20;7.57;;;6.90;99.90;;;;;;5051776;28;20179;-71
2021/01/23 20:15:59;;;;;;;14.17;8.53;;;6.90;99.90;;;;;;5050653;28;21008;-72
2021/01/23 20:18:25;;;;;;;12.10;9.00;;;6.90;99.90;;;;;;5037742;28;20183;-72
2021/01/23 20:20:50;;;;;;;12.30;9.10;;;6.90;99.90;;;;;;5032549;28;20187;-72
2021/01/23 20:23:16;;;;;;;7.93;6.80;;;6.80;99.90;;;;;;5032432;28;20188;-72
2021/01/23 20:25:41;;;;;;;8.90;7.30;;;6.80;99.90;;;;;;5032031;28;20210;-73
2021/01/23 20:28:07;;;;;;;8.70;7.77;;;6.80;99.90;;;;;;5032438;28;20187;-74
2021/01/23 20:30:33;;;;;;;8.27;6.90;;;6.90;99.90;;;;;;5051442;28;20240;-74
2021/01/23 20:32:58;;;;;;;11.70;8.47;;;6.90;99.90;;;;;;5050015;28;20967;-74
2021/01/23 20:35:24;;;;;;;7.50;6.70;;;6.90;99.90;;;;;;5051623;28;20186;-74
2021/01/23 20:37:50;;;;;;;9.70;6.13;;;6.90;99.90;;;;;;5051437;28;20191;-73
2021/01/23 20:40:16;;;;;;;17.63;11.20;;;6.90;99.90;;;;;;5051463;28;20183;-73
2021/01/23 20:42:43;;;;;;;17.00;9.60;;;6.90;99.90;;;;;;5051272;28;20433;-73
2021/01/23 20:45:10;;;;;;;11.03;7.30;;;6.90;99.90;;;;;;5050820;28;21015;-72
2021/01/23 20:47:35;;;;;;;9.47;7.77;;;6.90;99.90;;;;;;5044209;28;20438;-74
2021/01/23 20:50:01;;;;;;;11.70;10.00;;;6.90;99.90;;;;;;5032088;28;20441;-73
2021/01/23 20:52:30;;;;;;;9.90;8.10;;;6.90;99.90;;;;;;5032495;28;20194;-72
2021/01/23 20:54:56;;;;;;;10.30;7.90;;;7.00;99.90;;;;;;5032255;28;20429;-72
2021/01/23 20:57:22;;;;;;;9.33;7.60;;;6.90;99.90;;;;;;5032195;28;20438;-71
2021/01/23 20:59:47;;;;;;;8.53;6.77;;;6.90;99.90;;;;;;5032232;28;20176;-72
2021/01/23 21:02:13;;;;;;;13.17;7.33;;;6.90;99.90;;;;;;5031952;28;20431;-72
2021/01/23 21:04:39;;;;;;;12.00;8.60;;;6.90;99.90;;;;;;5032340;28;20278;-72
2021/01/23 21:07:05;;;;;;;14.40;8.70;;;6.80;99.90;;;;;;5032155;28;20244;-69
2021/01/23 21:09:31;;;;;;;12.97;8.43;;;6.80;99.90;;;;;;5032217;28;20896;-71
2021/01/23 21:11:56;;;;;;;13.00;8.77;;;6.80;99.90;;;;;;5032022;28;20481;-71
2021/01/23 21:14:22;;;;;;;14.00;8.60;;;6.70;99.90;;;;;;5035801;28;20586;-71
2021/01/23 21:16:48;;;;;;;12.20;7.77;;;6.70;99.90;;;;;;5051342;28;20557;-71
2021/01/23 21:19:13;;;;;;;11.47;7.27;;;6.70;99.90;;;;;;5054864;28;20179;-75
2021/01/23 21:21:39;;;;;;;13.73;8.40;;;6.70;99.90;;;;;;5054948;28;20657;-75
2021/01/23 21:24:05;;;;;;;9.17;7.70;;;6.70;99.90;;;;;;5054768;28;20660;-72
2021/01/23 21:26:31;;;;;;;8.83;6.80;;;6.70;99.90;;;;;;5054716;28;20285;-72
2021/01/23 21:28:58;;;;;;;8.80;7.37;;;6.70;99.90;;;;;;5053491;28;20500;-72
2021/01/23 21:31:24;;;;;;;10.00;7.63;;;6.60;99.90;;;;;;5054349;28;20242;-72
2021/01/23 21:33:49;;;;;;;10.67;7.07;;;6.60;99.90;;;;;;5048420;28;20433;-70
2021/01/23 21:36:15;;;;;;;11.87;8.57;;;6.60;99.90;;;;;;5035420;28;20441;-70
2021/01/23 21:38:41;;;;;;;14.63;7.87;;;6.60;99.90;;;;;;5035310;28;20194;-74
2021/01/23 21:41:06;;;;;;;11.97;8.87;;;6.60;99.90;;;;;;5035464;28;20184;-76
2021/01/23 21:43:32;;;;;;;11.13;8.37;;;6.60;99.90;;;;;;5035457;28;20206;-76
2021/01/23 21:45:57;;;;;;;12.60;10.17;;;6.60;99.90;;;;;;5039140;28;20655;-76
2021/01/23 21:48:24;;;;;;;14.00;8.20;;;6.60;99.90;;;;;;5035380;28;20171;-76